Latest Coastal Weather Observations for Kalumburu

IDW60701

Issued at 8:23 pm WST Sunday 28 August 2016 (issued every 10 minutes, with the page automatically refreshed every 10 minutes)

About coastal observations | Map of coastal stations | Coastal observations for WA | Marine services | Other Formats
Station Details ID: 001019 Name: KALUMBURU Lat: -14.30 Lon: 126.65 Height: 23.0 m
Data from the previous 72 hours. | See also: Recent months at Kalumburu
Date/Time
WST
Temp
°C
Wind Pressure Rain since
9am
mm
Weather Cloud Vis
km
Sea
Height
m
Swell
Dir  Spd
kts
Gust
kts
hPa Trend Height
m
Period
s
Dir
28/08:00pm 26.5 N 7 9 1013.0 - 0.0 - - - - - - -
28/07:30pm 26.6 N 8 11 1012.8 - 0.0 - - - - - - -
28/07:00pm 26.6 N 8 12 1012.4 - 0.0 - - - - - - -
28/06:30pm 26.7 NNW 7 11 1012.0 - 0.0 - - - - - - -
28/06:00pm 26.8 NNW 7 10 1011.6 - 0.0 - - - - - - -
28/05:30pm 27.0 NNW 10 15 1011.3 - 0.0 - - - - - - -
28/05:00pm 27.6 N 12 18 1011.1 - 0.0 - - - - - - -
28/04:30pm 28.5 NNW 11 17 1011.2 - 0.0 - - - - - - -
28/04:00pm 29.0 N 12 18 1011.0 - 0.0 - - - - - - -
28/03:30pm 29.9 N 13 20 1010.8 - 0.0 - - - - - - -
28/03:00pm 30.3 N 14 20 1010.6 - 0.0 - - - - - - -
28/02:30pm 31.9 NNW 12 17 1010.6 - 0.0 - - - - - - -
28/02:00pm 32.5 N 13 18 1010.6 - 0.0 - - - - - - -
28/01:30pm 33.1 N 10 16 1010.8 - 0.0 - - - - - - -
28/01:00pm 33.1 NNW 11 17 1011.2 - 0.0 - - - - - - -
28/12:30pm 32.6 NNW 11 17 1011.8 - 0.0 - - - - - - -
28/12:00pm 33.1 NNW 10 16 1012.1 - 0.0 - - - - - - -
28/11:30am 33.4 NNW 9 16 1012.5 - 0.0 - - - - - - -
28/11:00am 33.2 N 5 11 1013.0 - 0.0 - - - - - - -
28/10:30am 32.7 N 6 10 1013.6 - 0.0 - - - - - - -
28/10:00am 32.7 ENE 5 9 1014.2 - 0.0 - - - - - - -
28/09:30am 31.9 NE 5 8 1014.6 - 0.0 - - - - - - -
28/09:00am 30.6 E 4 7 1015.0 - 0.0 - - - - - - -
28/08:30am 29.6 NE 5 8 1015.3 - 0.0 - - - - - - -
28/08:00am 28.1 NNE 3 5 1015.2 - 0.0 - - - - - - -
28/07:30am 27.1 SSE 1 4 1015.3 - 0.0 - - - - - - -
28/07:00am 25.2 CALM 0 0 1015.2 - 0.0 - - - - - - -
28/06:30am 22.7 CALM 0 0 1015.0 - 0.0 - - - - - - -
28/06:00am 21.3 S 2 4 1014.7 - 0.0 - - - - - - -
28/05:30am 20.6 CALM 0 0 1014.2 - 0.0 - - - - - - -
28/05:00am 20.7 CALM 0 0 1014.0 - 0.0 - - - - - - -
28/04:30am 21.3 CALM 0 0 1013.9 - 0.0 - - - - - - -
28/04:00am 21.2 CALM 0 0 1013.6 - 0.0 - - - - - - -
28/03:30am 21.7 CALM 0 0 1013.5 - 0.0 - - - - - - -
28/03:00am 21.7 CALM 0 0 1013.7 - 0.0 - - - - - - -
28/02:30am 21.8 CALM 0 0 1013.9 - 0.0 - - - - - - -
28/02:00am 22.5 CALM 0 0 1013.8 - 0.0 - - - - - - -
28/01:30am 22.3 CALM 0 0 1013.9 - 0.0 - - - - - - -
28/01:00am 23.1 CALM 0 0 1014.1 - 0.0 - - - - - - -
28/12:30am 23.3 CALM 0 0 1014.2 - 0.0 - - - - - - -
28/12:00am 23.7 CALM 0 0 1014.5 - 0.0 - - - - - - -
 
Date/Time
WST
Temp
°C
Wind Pressure Rain since
9am
mm
Weather Cloud Vis
km
Sea
Height
m
Swell
Dir  Spd
kts
Gust
kts
hPa Trend Height
m
Period
s
Dir
27/11:30pm 24.2 CALM 0 0 1014.7 - 0.0 - - - - - - -
27/11:00pm 25.3 NNE 2 4 1015.0 - 0.0 - - - - - - -
27/10:30pm 25.8 NNE 5 7 1015.0 - 0.0 - - - - - - -
27/10:00pm 26.0 NNE 4 6 1015.0 - 0.0 - - - - - - -
27/09:30pm 26.3 NNE 6 9 1015.1 - 0.0 - - - - - - -
27/09:00pm 26.3 NNE 5 7 1015.0 - 0.0 - - - - - - -
27/08:30pm 26.6 NNE 5 9 1014.9 - 0.0 - - - - - - -
27/08:00pm 26.9 NNE 6 8 1014.6 - 0.0 - - - - - - -
27/07:30pm 27.3 NNE 6 8 1014.3 - 0.0 - - - - - - -
27/07:00pm 27.6 N 6 9 1013.9 - 0.0 - - - - - - -
27/06:30pm 27.4 NNW 7 11 1013.3 - 0.0 - - - - - - -
27/06:00pm 27.6 NNW 8 13 1012.9 - 0.0 - - - - - - -
27/05:30pm 27.9 NNW 8 13 1012.6 - 0.0 - - - - - - -
27/05:00pm 28.7 NNW 10 14 1012.3 - 0.0 - - - - - - -
27/04:30pm 30.0 NNW 9 13 1012.1 - 0.0 - - - - - - -
27/04:00pm 30.8 NNW 10 15 1012.0 - 0.0 - - - - - - -
27/03:30pm 31.6 NNW 9 15 1011.7 - 0.0 - - - - - - -
27/03:00pm 31.5 NNW 12 17 1011.6 - 0.0 - - - - - - -
27/02:30pm 32.0 NNW 12 17 1011.7 - 0.0 - - - - - - -
27/02:00pm 32.3 NW 12 16 1011.8 - 0.0 - - - - - - -
27/01:30pm 33.1 NNW 11 17 1012.0 - 0.0 - - - - - - -
27/01:00pm 33.3 NNW 11 16 1012.2 - 0.0 - - - - - - -
27/12:30pm 33.3 N 9 17 1012.4 - 0.0 - - - - - - -
27/12:00pm 33.6 NNE 9 16 1013.0 - 0.0 - - - - - - -
27/11:30am 33.0 NE 8 14 1013.7 - 0.0 - - - - - - -
27/11:00am 33.0 NE 6 11 1014.3 - 0.0 - - - - - - -
27/10:30am 32.3 NNE 9 16 1014.9 - 0.0 - - - - - - -
27/10:00am 32.4 ENE 7 13 1015.5 - 0.0 - - - - - - -
27/09:30am 31.9 ENE 8 14 1015.9 - 0.0 - - - - - - -
27/09:00am 30.9 ESE 6 9 1016.0 - 0.0 - - - - - - -
27/08:30am 29.5 NNW 3 5 1015.9 - 0.0 - - - - - - -
27/08:00am 26.3 S 4 5 1015.9 - 0.0 - - - - - - -
27/07:30am 24.0 S 3 4 1015.7 - 0.0 - - - - - - -
27/07:00am 21.7 S 4 6 1015.7 - 0.0 - - - - - - -
27/06:30am 18.1 SSE 3 4 1015.5 - 0.0 - - - - - - -
27/06:00am 15.0 SSE 1 3 1014.9 - 0.0 - - - - - - -
27/05:30am 15.1 CALM 0 0 1014.4 - 0.0 - - - - - - -
27/05:00am 15.1 CALM 0 0 1014.3 - 0.0 - - - - - - -
27/04:30am 15.4 CALM 0 0 1014.0 - 0.0 - - - - - - -
27/04:00am 15.4 SSW 2 3 1013.9 - 0.0 - - - - - - -
27/03:30am 16.2 CALM 0 0 1013.8 - 0.0 - - - - - - -
27/03:00am 16.2 CALM 0 0 1013.8 - 0.0 - - - - - - -
27/02:30am 16.3 CALM 0 0 1013.8 - 0.0 - - - - - - -
27/02:00am 16.5 CALM 0 0 1013.5 - 0.0 - - - - - - -
27/01:30am 17.4 CALM 0 0 1013.6 - 0.0 - - - - - - -
27/01:00am 16.9 CALM 0 0 1013.7 - 0.0 - - - - - - -
27/12:30am 18.0 CALM 0 0 1013.9 - 0.0 - - - - - - -
27/12:00am 18.0 CALM 0 0 1014.0 - 0.0 - - - - - - -
 
Date/Time
WST
Temp
°C
Wind Pressure Rain since
9am
mm
Weather Cloud Vis
km
Sea
Height
m
Swell
Dir  Spd
kts
Gust
kts
hPa Trend Height
m
Period
s
Dir
26/11:30pm 18.8 CALM 0 3 1014.1 - 0.0 - - - - - - -
26/11:00pm 19.9 CALM 0 0 1014.2 - 0.0 - - - - - - -
26/10:30pm 21.0 CALM 0 0 1014.1 - 0.0 - - - - - - -
26/10:00pm 21.7 S 3 5 1014.1 - 0.0 - - - - - - -
26/09:30pm 22.8 CALM 0 0 1014.0 - 0.0 - - - - - - -
26/09:00pm 23.8 ENE 2 4 1014.2 - 0.0 - - - - - - -
26/08:30pm 25.0 SE 1 4 1014.0 - 0.0 - - - - - - -
26/08:00pm 27.5 NE 5 11 1013.9 - 0.0 - - - - - - -
26/07:30pm 27.9 ENE 5 8 1013.7 - 0.0 - - - - - - -
26/07:00pm 28.0 ENE 4 6 1013.4 - 0.0 - - - - - - -
26/06:30pm 29.2 NE 5 12 1012.8 - 0.0 - - - - - - -
26/06:00pm 29.6 NE 7 13 1012.2 - 0.0 - - - - - - -
26/05:30pm 30.3 ENE 7 14 1011.7 - 0.0 - - - - - - -
26/05:00pm 31.2 NE 9 14 1011.3 - 0.0 - - - - - - -
26/04:30pm 32.3 ENE 9 16 1010.9 - 0.0 - - - - - - -
26/04:00pm 33.1 ENE 10 20 1010.5 - 0.0 - - - - - - -
26/03:30pm 34.7 E 7 13 1010.0 - 0.0 - - - - - - -
26/03:00pm 35.1 E 5 10 1009.9 - 0.0 - - - - - - -
26/02:30pm 35.3 NE 6 10 1010.2 - 0.0 - - - - - - -
26/02:00pm 35.1 NW 8 14 1010.2 - 0.0 - - - - - - -
26/01:30pm 35.1 E 5 9 1010.5 - 0.0 - - - - - - -
26/01:00pm 35.1 ENE 7 13 1011.0 - 0.0 - - - - - - -
26/12:30pm 34.9 NNE 7 15 1011.5 - 0.0 - - - - - - -
26/12:00pm 34.1 NE 7 12 1012.1 - 0.0 - - - - - - -
26/11:30am 34.5 NE 6 10 1012.5 - 0.0 - - - - - - -
26/11:00am 34.4 E 6 10 1012.8 - 0.0 - - - - - - -
26/10:30am 33.7 ENE 8 13 1013.4 - 0.0 - - - - - - -
26/10:00am 33.1 ESE 7 13 1013.6 - 0.0 - - - - - - -
26/09:30am 32.9 E 9 15 1013.9 - 0.0 - - - - - - -
26/09:00am 31.6 ESE 9 13 1014.1 - 0.0 - - - - - - -
26/08:30am 29.8 SSE 5 9 1014.2 - 0.0 - - - - - - -
26/08:00am 26.6 S 5 7 1014.2 - 0.0 - - - - - - -
26/07:30am 24.3 S 4 6 1014.3 - 0.0 - - - - - - -
26/07:00am 22.0 S 5 7 1014.3 - 0.0 - - - - - - -
26/06:30am 17.8 CALM 0 3 1014.1 - 0.0 - - - - - - -
26/06:00am 16.5 CALM 0 0 1013.7 - 0.0 - - - - - - -
26/05:30am 16.2 SSE 3 4 1013.5 - 0.0 - - - - - - -
26/05:00am 16.3 SSE 1 3 1013.3 - 0.0 - - - - - - -
26/04:30am 17.1 CALM 0 0 1013.0 - 0.0 - - - - - - -
26/04:00am 16.5 SSW 3 4 1012.8 - 0.0 - - - - - - -
26/03:30am 17.0 CALM 0 0 1012.7 - 0.0 - - - - - - -
26/03:00am 17.1 CALM 0 0 1012.7 - 0.0 - - - - - - -
26/02:30am 17.2 CALM 0 0 1012.4 - 0.0 - - - - - - -
26/02:00am 17.2 CALM 0 0 1012.5 - 0.0 - - - - - - -
26/01:30am 17.5 CALM 0 0 1012.7 - 0.0 - - - - - - -
26/01:00am 18.0 CALM 0 0 1012.9 - 0.0 - - - - - - -
26/12:30am 18.2 CALM 0 0 1013.1 - 0.0 - - - - - - -
26/12:00am 18.6 CALM 0 0 1013.2 - 0.0 - - - - - - -
 
Date/Time
WST
Temp
°C
Wind Pressure Rain since
9am
mm
Weather Cloud Vis
km
Sea
Height
m
Swell
Dir  Spd
kts
Gust
kts
hPa Trend Height
m
Period
s
Dir
25/11:30pm 18.8 CALM 0 0 1013.2 - 0.0 - - - - - - -
25/11:00pm 19.3 CALM 0 0 1013.5 - 0.0 - - - - - - -
25/10:30pm 19.8 CALM 0 0 1013.5 - 0.0 - - - - - - -
25/10:00pm 20.8 CALM 0 0 1013.4 - 0.0 - - - - - - -
25/09:30pm 21.3 CALM 0 0 1013.3 - 0.0 - - - - - - -
25/09:00pm 21.8 CALM 0 0 1013.2 - 0.0 - - - - - - -
25/08:30pm 22.9 NNW 1 3 1013.1 - 0.0 - - - - - - -

Other Formats:

Comma delimited format used in spreadsheet applications
http://www.bom.gov.au/fwo/IDW60701/IDW60701.94100.axf

JavaScript Object Notation format (JSON) in row-major order
http://www.bom.gov.au/fwo/IDW60701/IDW60701.94100.json